SWA1002 TJSJ-KFLL
Flight info
| Callsign | SWA1002 |
|---|---|
| Flight time | N/A |
| Altitude | 32000 |
| Route | ACONY3 SAPPO Y399 ZQA OLAHS3 |
| Aircraft | B38M/M-SDE1FGHILORVWXY/HB1 |
Departure
| Time | N/A |
|---|---|
| Airport | Luis Munoz Marin International Airport (TJSJ) |
Arrival
| Time | 2026-05-04 01:15 |
|---|---|
| Airport | Fort Lauderdale Hollywood International Airport (KFLL) |
| Time | Latitude | Longitude | Altitude | Speed | Heading |
|---|---|---|---|---|---|
| 2026-05-04 00:41 | 25.33214 | -78.26349 | 27843 ft | 442 kts | 289° |
| 2026-05-04 00:42 | 25.34440 | -78.29419 | 27273 ft | 444 kts | 289° |
| 2026-05-04 00:42 | 25.35687 | -78.32547 | 26681 ft | 445 kts | 289° |
| 2026-05-04 00:42 | 25.36940 | -78.35692 | 26089 ft | 447 kts | 289° |
| 2026-05-04 00:42 | 25.38192 | -78.38839 | 25501 ft | 445 kts | 290° |
| 2026-05-04 00:43 | 25.39438 | -78.41965 | 24930 ft | 442 kts | 290° |
| 2026-05-04 00:43 | 25.40666 | -78.45059 | 24379 ft | 435 kts | 290° |
| 2026-05-04 00:43 | 25.41844 | -78.48112 | 23808 ft | 429 kts | 289° |
| 2026-05-04 00:43 | 25.43005 | -78.51137 | 23215 ft | 424 kts | 289° |
| 2026-05-04 00:44 | 25.44152 | -78.54115 | 22655 ft | 418 kts | 289° |
| 2026-05-04 00:44 | 25.45277 | -78.57047 | 22129 ft | 411 kts | 289° |
| 2026-05-04 00:44 | 25.46388 | -78.59939 | 21638 ft | 405 kts | 289° |
| 2026-05-04 00:44 | 25.47481 | -78.62788 | 21141 ft | 400 kts | 289° |
| 2026-05-04 00:45 | 25.48537 | -78.65537 | 20671 ft | 395 kts | 289° |
| 2026-05-04 00:45 | 25.49603 | -78.68318 | 20208 ft | 390 kts | 289° |
| 2026-05-04 00:45 | 25.50236 | -78.69969 | 19933 ft | 388 kts | 289° |
| 2026-05-04 00:45 | 25.50318 | -78.70182 | 19898 ft | 387 kts | 289° |
| 2026-05-04 00:46 | 25.51364 | -78.72915 | 19444 ft | 383 kts | 289° |
| 2026-05-04 00:46 | 25.52391 | -78.75597 | 19271 ft | 373 kts | 289° |
| 2026-05-04 00:46 | 25.53400 | -78.78238 | 18790 ft | 371 kts | 289° |
| 2026-05-04 00:46 | 25.54399 | -78.80855 | 18413 ft | 367 kts | 289° |
| 2026-05-04 00:47 | 25.55389 | -78.83450 | 17976 ft | 364 kts | 289° |
| 2026-05-04 00:47 | 25.56366 | -78.86013 | 17554 ft | 360 kts | 289° |
| 2026-05-04 00:47 | 25.57337 | -78.88559 | 17151 ft | 357 kts | 289° |
| 2026-05-04 00:47 | 25.58295 | -78.91075 | 16758 ft | 353 kts | 289° |
| 2026-05-04 00:48 | 25.59245 | -78.93571 | 16363 ft | 350 kts | 289° |
| 2026-05-04 00:48 | 25.60188 | -78.96051 | 15967 ft | 348 kts | 289° |
| 2026-05-04 00:48 | 25.61115 | -78.98488 | 15582 ft | 347 kts | 289° |
| 2026-05-04 00:48 | 25.62063 | -79.00984 | 15197 ft | 346 kts | 289° |
| 2026-05-04 00:49 | 25.62984 | -79.03411 | 14804 ft | 345 kts | 289° |
| 2026-05-04 00:49 | 25.63908 | -79.05870 | 14352 ft | 346 kts | 289° |
| 2026-05-04 00:49 | 25.64829 | -79.08320 | 13994 ft | 343 kts | 289° |
| 2026-05-04 00:49 | 25.65745 | -79.10756 | 13599 ft | 341 kts | 289° |
| 2026-05-04 00:50 | 25.66656 | -79.13182 | 13188 ft | 339 kts | 289° |
| 2026-05-04 00:50 | 25.67558 | -79.15586 | 12807 ft | 336 kts | 289° |
| 2026-05-04 00:50 | 25.68452 | -79.17968 | 12421 ft | 329 kts | 289° |
| 2026-05-04 00:50 | 25.69313 | -79.20265 | 12064 ft | 316 kts | 289° |
| 2026-05-04 00:51 | 25.70136 | -79.22462 | 11730 ft | 304 kts | 289° |
| 2026-05-04 00:51 | 25.70933 | -79.24591 | 11400 ft | 293 kts | 289° |
| 2026-05-04 00:51 | 25.71699 | -79.26637 | 11101 ft | 289 kts | 289° |
| 2026-05-04 00:51 | 25.72469 | -79.28694 | 10778 ft | 288 kts | 289° |
| 2026-05-04 00:52 | 25.73221 | -79.30733 | 10582 ft | 283 kts | 289° |
| 2026-05-04 00:52 | 25.73957 | -79.32738 | 10446 ft | 279 kts | 289° |
| 2026-05-04 00:52 | 25.74688 | -79.34728 | 10319 ft | 279 kts | 289° |
| 2026-05-04 00:52 | 25.75419 | -79.36720 | 10187 ft | 279 kts | 289° |
| 2026-05-04 00:53 | 25.76148 | -79.38706 | 10026 ft | 279 kts | 289° |
| 2026-05-04 00:53 | 25.76876 | -79.40690 | 9718 ft | 279 kts | 289° |
| 2026-05-04 00:53 | 25.77607 | -79.42683 | 9375 ft | 279 kts | 289° |
| 2026-05-04 00:53 | 25.78336 | -79.44674 | 9058 ft | 278 kts | 289° |
| 2026-05-04 00:54 | 25.79062 | -79.46656 | 8756 ft | 276 kts | 289° |
| 2026-05-04 00:54 | 25.79783 | -79.48623 | 8448 ft | 275 kts | 289° |
| 2026-05-04 00:54 | 25.80502 | -79.50589 | 8143 ft | 274 kts | 289° |
| 2026-05-04 00:54 | 25.81218 | -79.52547 | 7844 ft | 273 kts | 289° |
| 2026-05-04 00:55 | 25.81931 | -79.54498 | 7538 ft | 272 kts | 289° |
| 2026-05-04 00:55 | 25.82642 | -79.56444 | 7243 ft | 271 kts | 289° |
| 2026-05-04 00:55 | 25.83348 | -79.58376 | 6945 ft | 270 kts | 289° |
| 2026-05-04 00:55 | 25.84058 | -79.60303 | 6648 ft | 269 kts | 290° |
| 2026-05-04 00:56 | 25.84780 | -79.62217 | 6309 ft | 269 kts | 290° |
| 2026-05-04 00:56 | 25.85500 | -79.64125 | 6041 ft | 266 kts | 292° |
| 2026-05-04 00:56 | 25.86284 | -79.65962 | 6055 ft | 264 kts | 293° |
| 2026-05-04 00:56 | 25.87081 | -79.67816 | 6019 ft | 265 kts | 293° |
| 2026-05-04 00:57 | 25.87873 | -79.69667 | 6004 ft | 265 kts | 293° |
| 2026-05-04 00:57 | 25.88663 | -79.71517 | 6007 ft | 266 kts | 293° |
| 2026-05-04 00:57 | 25.89454 | -79.73373 | 6009 ft | 266 kts | 293° |
| 2026-05-04 00:57 | 25.90246 | -79.75228 | 6003 ft | 266 kts | 293° |
| 2026-05-04 00:58 | 25.91038 | -79.77082 | 5998 ft | 266 kts | 293° |
| 2026-05-04 00:58 | 25.91825 | -79.78929 | 6000 ft | 267 kts | 293° |
| 2026-05-04 00:58 | 25.92608 | -79.80765 | 6005 ft | 266 kts | 292° |
| 2026-05-04 00:58 | 25.93398 | -79.82620 | 6000 ft | 266 kts | 293° |
| 2026-05-04 00:59 | 25.94189 | -79.84477 | 6002 ft | 266 kts | 293° |
| 2026-05-04 00:59 | 25.94977 | -79.86329 | 6000 ft | 265 kts | 293° |
| 2026-05-04 00:59 | 25.95764 | -79.88178 | 6000 ft | 265 kts | 292° |
| 2026-05-04 00:59 | 25.96550 | -79.90026 | 6000 ft | 265 kts | 292° |
| 2026-05-04 01:00 | 25.97338 | -79.91879 | 6002 ft | 265 kts | 293° |
| 2026-05-04 01:00 | 25.98115 | -79.93707 | 6001 ft | 265 kts | 293° |
| 2026-05-04 01:00 | 25.99010 | -79.95525 | 5992 ft | 266 kts | 305° |
| 2026-05-04 01:00 | 26.00246 | -79.97066 | 6024 ft | 268 kts | 309° |
| 2026-05-04 01:01 | 26.01477 | -79.98583 | 6003 ft | 268 kts | 308° |
| 2026-05-04 01:01 | 26.02742 | -80.00144 | 6022 ft | 269 kts | 309° |
| 2026-05-04 01:01 | 26.03977 | -80.01670 | 6015 ft | 270 kts | 309° |
| 2026-05-04 01:01 | 26.05235 | -80.03226 | 6031 ft | 270 kts | 309° |
| 2026-05-04 01:02 | 26.06490 | -80.04778 | 6017 ft | 269 kts | 309° |
| 2026-05-04 01:02 | 26.07735 | -80.06320 | 6000 ft | 268 kts | 309° |
| 2026-05-04 01:02 | 26.08984 | -80.07861 | 6001 ft | 269 kts | 309° |
| 2026-05-04 01:02 | 26.10237 | -80.09411 | 6012 ft | 269 kts | 309° |
| 2026-05-04 01:03 | 26.11488 | -80.10958 | 6017 ft | 269 kts | 309° |
| 2026-05-04 01:03 | 26.12732 | -80.12498 | 6009 ft | 262 kts | 309° |
| 2026-05-04 01:03 | 26.13915 | -80.13966 | 6009 ft | 247 kts | 307° |
| 2026-05-04 01:03 | 26.14709 | -80.15570 | 5876 ft | 231 kts | 281° |
| 2026-05-04 01:04 | 26.14850 | -80.17311 | 5796 ft | 226 kts | 271° |
| 2026-05-04 01:04 | 26.14922 | -80.19055 | 5775 ft | 229 kts | 271° |
| 2026-05-04 01:04 | 26.14973 | -80.20828 | 5707 ft | 230 kts | 269° |
| 2026-05-04 01:04 | 26.15006 | -80.22600 | 5629 ft | 227 kts | 269° |
| 2026-05-04 01:05 | 26.15031 | -80.24317 | 5559 ft | 215 kts | 269° |
| 2026-05-04 01:05 | 26.15050 | -80.25939 | 5486 ft | 206 kts | 269° |
| 2026-05-04 01:05 | 26.15064 | -80.27536 | 5404 ft | 207 kts | 269° |
| 2026-05-04 01:05 | 26.15074 | -80.29139 | 5338 ft | 207 kts | 269° |
| 2026-05-04 01:06 | 26.15083 | -80.30745 | 5276 ft | 206 kts | 269° |
| 2026-05-04 01:06 | 26.15090 | -80.32332 | 5194 ft | 206 kts | 269° |
| 2026-05-04 01:06 | 26.15097 | -80.33933 | 5119 ft | 206 kts | 269° |
| 2026-05-04 01:06 | 26.15087 | -80.35527 | 5014 ft | 206 kts | 268° |
| 2026-05-04 01:07 | 26.15064 | -80.37098 | 4992 ft | 206 kts | 268° |
| 2026-05-04 01:07 | 26.15041 | -80.38680 | 4899 ft | 204 kts | 268° |
| 2026-05-04 01:07 | 26.15017 | -80.40261 | 4598 ft | 205 kts | 268° |
| 2026-05-04 01:07 | 26.14989 | -80.41827 | 4422 ft | 196 kts | 265° |
| 2026-05-04 01:08 | 26.14747 | -80.43266 | 4308 ft | 184 kts | 251° |
| 2026-05-04 01:08 | 26.14121 | -80.44479 | 4066 ft | 183 kts | 221° |
| 2026-05-04 01:08 | 26.12947 | -80.45003 | 3987 ft | 189 kts | 188° |
| 2026-05-04 01:08 | 26.11596 | -80.45039 | 4038 ft | 199 kts | 177° |
| 2026-05-04 01:09 | 26.10218 | -80.44779 | 4047 ft | 206 kts | 172° |
| 2026-05-04 01:09 | 26.08826 | -80.44509 | 4053 ft | 199 kts | 168° |
| 2026-05-04 01:09 | 26.07623 | -80.43779 | 3997 ft | 201 kts | 135° |
| 2026-05-04 01:09 | 26.07024 | -80.42408 | 3940 ft | 200 kts | 101° |
| 2026-05-04 01:10 | 26.06898 | -80.40855 | 3953 ft | 204 kts | 91° |
| 2026-05-04 01:10 | 26.06934 | -80.39271 | 3795 ft | 207 kts | 88° |
| 2026-05-04 01:10 | 26.06998 | -80.37696 | 3558 ft | 202 kts | 88° |
| 2026-05-04 01:10 | 26.07092 | -80.36138 | 3345 ft | 202 kts | 81° |
| 2026-05-04 01:11 | 26.07437 | -80.34618 | 3138 ft | 203 kts | 75° |
| 2026-05-04 01:11 | 26.07722 | -80.33049 | 2810 ft | 211 kts | 81° |
| 2026-05-04 01:11 | 26.07841 | -80.31422 | 2544 ft | 213 kts | 89° |
| 2026-05-04 01:11 | 26.07794 | -80.29783 | 2279 ft | 211 kts | 92° |
| 2026-05-04 01:12 | 26.07760 | -80.28710 | 2103 ft | 208 kts | 91° |
| 2026-05-04 01:12 | 26.07741 | -80.27109 | 1850 ft | 203 kts | 90° |
| 2026-05-04 01:12 | 26.07737 | -80.25605 | 1602 ft | 188 kts | 89° |
| 2026-05-04 01:12 | 26.07728 | -80.23759 | 1288 ft | 173 kts | 89° |
| 2026-05-04 01:13 | 26.07722 | -80.22485 | 1100 ft | 155 kts | 88° |
| 2026-05-04 01:13 | 26.07719 | -80.21698 | 969 ft | 150 kts | 88° |
| 2026-05-04 01:13 | 26.07713 | -80.20544 | 767 ft | 149 kts | 89° |
| 2026-05-04 01:13 | 26.07709 | -80.19388 | 548 ft | 149 kts | 89° |
| 2026-05-04 01:14 | 26.07700 | -80.18237 | 396 ft | 149 kts | 89° |
| 2026-05-04 01:14 | 26.07699 | -80.17103 | 171 ft | 148 kts | 88° |
| 2026-05-04 01:14 | 26.07692 | -80.15958 | 21 ft | 139 kts | 89° |
| 2026-05-04 01:14 | 26.07685 | -80.15122 | 13 ft | 73 kts | 90° |
| 2026-05-04 01:15 | 26.07661 | -80.14698 | 22 ft | 42 kts | 107° |
| 2026-05-04 01:15 | 26.07583 | -80.14509 | 22 ft | 15 kts | 119° |
| 2026-05-04 01:15 | 26.07562 | -80.14436 | 24 ft | 9 kts | 100° |
| 2026-05-04 01:15 | 26.07557 | -80.14366 | 22 ft | 9 kts | 90° |
| 2026-05-04 01:16 | 26.07557 | -80.14293 | 22 ft | 9 kts | 91° |
| 2026-05-04 01:16 | 26.07556 | -80.14262 | 21 ft | 3 kts | 98° |
| 2026-05-04 01:16 | 26.07525 | -80.14234 | 21 ft | 7 kts | 161° |
| 2026-05-04 01:16 | 26.07488 | -80.14199 | 23 ft | 7 kts | 105° |
| 2026-05-04 01:17 | 26.07485 | -80.14128 | 21 ft | 13 kts | 90° |
| 2026-05-04 01:17 | 26.07485 | -80.14017 | 19 ft | 15 kts | 90° |
| 2026-05-04 01:17 | 26.07455 | -80.13949 | 17 ft | 6 kts | 177° |
| 2026-05-04 01:17 | 26.07427 | -80.13951 | 17 ft | 3 kts | 184° |
| 2026-05-04 01:18 | 26.07379 | -80.13933 | 18 ft | 13 kts | 134° |
| 2026-05-04 01:18 | 26.07367 | -80.13910 | 20 ft | 0 kts | 116° |